Time,TemperatureF,DewpointF,PressureIn,WindDirection,WindDirectionDegrees,WindSpeedMPH,WindSpeedGustMPH,Humidity,HourlyPrecipIn,Conditions,Clouds,dailyrainin,SoftwareType,DateUTC
2013-02-16 00:03:00,17.6,4.5,30.18,NE,45,3.1,6.0,56,0.00,FEW,,0.00,WeatherDisplay:10.37,2013-02-16 06:03:00,
2013-02-16 00:09:00,17.6,3.8,30.18,NE,45,3.1,5.8,54,0.00,FEW,,0.00,WeatherDisplay:10.37,2013-02-16 06:09:00,
2013-02-16 00:14:00,17.2,3.4,30.19,NW,315,4.5,11.5,54,0.00,FEW,,0.00,WeatherDisplay:10.37,2013-02-16 06:14:00,
2013-02-16 00:20:00,17.1,3.3,30.19,NW,315,4.5,9.2,54,0.00,FEW,,0.00,WeatherDisplay:10.37,2013-02-16 06:20:00,
2013-02-16 00:26:00,16.5,1.5,30.19,NW,315,4.5,9.2,51,0.00,FEW,,0.00,WeatherDisplay:10.37,2013-02-16 06:26:00,
2013-02-16 00:31:00,16.5,2.7,30.19,North,0,6.0,8.1,54,0.00,FEW,,0.00,WeatherDisplay:10.37,2013-02-16 06:31:00,
2013-02-16 00:37:00,16.3,2.6,30.19,NW,315,6.9,9.2,54,0.00,FEW,,0.00,WeatherDisplay:10.37,2013-02-16 06:37:00,
2013-02-16 00:42:00,16.2,2.4,30.19,North,0,6.9,10.4,54,0.00,FEW,,0.00,WeatherDisplay:10.37,2013-02-16 06:42:00,
2013-02-16 00:48:00,16.2,2.4,30.19,North,0,5.4,8.1,54,0.00,FEW,,0.00,WeatherDisplay:10.37,2013-02-16 06:48:00,
2013-02-16 00:54:00,16.0,2.2,30.19,North,0,5.4,9.2,54,0.00,FEW,,0.00,WeatherDisplay:10.37,2013-02-16 06:54:00,
2013-02-16 00:59:00,15.8,2.1,30.19,NW,315,3.1,6.0,54,0.00,FEW,,0.00,WeatherDisplay:10.37,2013-02-16 06:59:00,
2013-02-16 01:05:00,16.0,2.2,30.19,NW,315,3.1,4.6,54,0.00,CLR,FEW,0.00,WeatherDisplay:10.37,2013-02-16 07:05:00,
2013-02-16 01:10:00,15.6,1.9,30.19,NW,315,3.8,5.8,54,0.00,CLR,FEW,0.00,WeatherDisplay:10.37,2013-02-16 07:10:00,
2013-02-16 01:16:00,15.6,1.9,30.19,NW,315,5.4,9.2,54,0.00,CLR,FEW,0.00,WeatherDisplay:10.37,2013-02-16 07:16:00,
2013-02-16 01:22:00,15.6,1.9,30.19,North,0,3.8,8.1,54,0.00,CLR,FEW,0.00,WeatherDisplay:10.37,2013-02-16 07:22:00,
2013-02-16 01:27:00,15.4,0.9,30.19,NE,45,3.8,5.8,52,0.00,CLR,FEW,0.00,WeatherDisplay:10.37,2013-02-16 07:27:00,
2013-02-16 01:33:00,15.4,1.7,30.18,North,0,2.2,5.8,54,0.00,CLR,FEW,0.00,WeatherDisplay:10.37,2013-02-16 07:33:00,
2013-02-16 01:38:00,15.3,1.2,30.18,North,0,2.2,8.1,53,0.00,CLR,FEW,0.00,WeatherDisplay:10.37,2013-02-16 07:38:00,
2013-02-16 01:44:00,15.3,1.2,30.18,North,0,3.8,6.9,53,0.00,CLR,FEW,0.00,WeatherDisplay:10.37,2013-02-16 07:44:00,
2013-02-16 01:50:00,15.3,1.2,30.18,NW,315,3.8,8.1,53,0.00,CLR,FEW,0.00,WeatherDisplay:10.37,2013-02-16 07:50:00,
2013-02-16 01:55:00,15.3,1.6,30.18,North,0,4.5,8.3,54,0.00,CLR,FEW,0.00,WeatherDisplay:10.37,2013-02-16 07:55:00,
2013-02-16 02:01:00,15.1,1.4,30.18,North,0,3.1,9.2,54,0.00,CLR,FEW,0.00,WeatherDisplay:10.37,2013-02-16 08:01:00,
2013-02-16 02:06:00,15.3,1.6,30.18,North,0,2.2,6.9,54,0.00,CLR,FEW,0.00,WeatherDisplay:10.37,2013-02-16 08:06:00,
2013-02-16 02:12:00,15.1,1.4,30.18,North,0,2.2,6.9,54,0.00,CLR,FEW,0.00,WeatherDisplay:10.37,2013-02-16 08:12:00,
2013-02-16 02:18:00,15.1,1.4,30.18,NW,315,2.2,4.6,54,0.00,CLR,FEW,0.00,WeatherDisplay:10.37,2013-02-16 08:18:00,
2013-02-16 02:23:00,14.9,1.2,30.17,West,270,1.6,4.6,54,0.00,CLR,FEW,0.00,WeatherDisplay:10.37,2013-02-16 08:23:00,
2013-02-16 02:29:00,14.7,1.1,30.18,NW,315,2.2,5.8,54,0.00,CLR,FEW,0.00,WeatherDisplay:10.37,2013-02-16 08:29:00,
2013-02-16 02:34:00,14.9,1.2,30.18,North,0,3.1,5.8,54,0.00,CLR,FEW,0.00,WeatherDisplay:10.37,2013-02-16 08:34:00,
2013-02-16 02:40:00,14.5,0.9,30.17,NE,45,2.2,5.8,54,0.00,CLR,FEW,0.00,WeatherDisplay:10.37,2013-02-16 08:40:00,
2013-02-16 02:46:00,14.5,0.9,30.17,NW,315,3.1,6.9,54,0.00,CLR,FEW,0.00,WeatherDisplay:10.37,2013-02-16 08:46:00,
2013-02-16 02:51:00,14.5,0.9,30.17,NW,315,2.2,8.1,54,0.00,CLR,FEW,0.00,WeatherDisplay:10.37,2013-02-16 08:51:00,
2013-02-16 02:57:00,14.5,2.4,30.17,NW,315,1.6,5.8,58,0.00,CLR,FEW,0.00,WeatherDisplay:10.37,2013-02-16 08:57:00,
2013-02-16 03:02:00,14.5,-0.3,30.17,NW,315,3.1,4.6,51,0.00,CLR,FEW,0.00,WeatherDisplay:10.37,2013-02-16 09:02:00,
2013-02-16 03:08:00,14.5,-0.3,30.17,NW,315,3.1,4.6,51,0.00,CLR,FEW,0.00,WeatherDisplay:10.37,2013-02-16 09:08:00,
2013-02-16 03:14:00,14.4,2.3,30.17,North,0,2.2,4.5,58,0.00,CLR,FEW,0.00,WeatherDisplay:10.37,2013-02-16 09:14:00,
2013-02-16 03:19:00,14.2,-0.7,30.17,West,270,3.1,5.8,51,0.00,CLR,FEW,0.00,WeatherDisplay:10.37,2013-02-16 09:19:00,
2013-02-16 03:25:00,14.2,2.1,30.16,North,0,1.6,3.5,58,0.00,CLR,FEW,0.00,WeatherDisplay:10.37,2013-02-16 09:25:00,
2013-02-16 03:30:00,14.0,-0.8,30.17,NW,315,0.0,3.5,51,0.00,CLR,FEW,0.00,WeatherDisplay:10.37,2013-02-16 09:30:00,
2013-02-16 03:36:00,14.0,-0.8,30.16,NW,315,0.7,3.5,51,0.00,CLR,FEW,0.00,WeatherDisplay:10.37,2013-02-16 09:36:00,
2013-02-16 03:42:00,13.8,-1.0,30.17,NW,315,1.6,3.5,51,0.00,CLR,FEW,0.00,WeatherDisplay:10.37,2013-02-16 09:42:00,
2013-02-16 03:47:00,13.6,-1.2,30.17,NW,315,0.7,2.3,51,0.00,CLR,FEW,0.00,WeatherDisplay:10.37,2013-02-16 09:47:00,
2013-02-16 03:53:00,13.6,-1.2,30.16,West,270,0.7,3.5,51,0.00,CLR,FEW,0.00,WeatherDisplay:10.37,2013-02-16 09:53:00,
2013-02-16 03:58:00,13.5,2.1,30.16,NW,315,0.0,3.5,60,0.00,CLR,FEW,0.00,WeatherDisplay:10.37,2013-02-16 09:58:00,
2013-02-16 04:04:00,13.3,1.2,30.16,NW,315,0.0,3.5,58,0.00,CLR,FEW,0.00,WeatherDisplay:10.37,2013-02-16 10:04:00,
2013-02-16 04:10:00,13.1,2.2,30.16,West,270,0.7,3.5,61,0.00,CLR,FEW,0.00,WeatherDisplay:10.37,2013-02-16 10:10:00,
2013-02-16 04:15:00,13.1,1.1,30.16,North,0,1.6,3.5,58,0.00,CLR,FEW,0.00,WeatherDisplay:10.37,2013-02-16 10:15:00,
2013-02-16 04:21:00,13.1,2.5,30.16,NW,315,0.7,1.6,62,0.00,CLR,FEW,0.00,WeatherDisplay:10.37,2013-02-16 10:21:00,
2013-02-16 04:26:00,12.9,0.9,30.16,NW,315,0.0,1.1,58,0.00,CLR,FEW,0.00,WeatherDisplay:10.37,2013-02-16 10:26:00,
2013-02-16 04:32:00,12.9,0.9,30.16,NW,315,0.7,3.5,58,0.00,CLR,FEW,0.00,WeatherDisplay:10.37,2013-02-16 10:32:00,
2013-02-16 04:38:00,12.9,3.0,30.16,SW,225,1.6,3.1,64,0.00,CLR,FEW,0.00,WeatherDisplay:10.37,2013-02-16 10:38:00,
2013-02-16 04:43:00,12.7,2.8,30.17,NW,315,0.7,4.6,64,0.00,CLR,FEW,0.00,WeatherDisplay:10.37,2013-02-16 10:43:00,
2013-02-16 04:49:00,12.7,0.7,30.16,NW,315,1.6,3.5,58,0.00,CLR,FEW,0.00,WeatherDisplay:10.37,2013-02-16 10:49:00,
2013-02-16 04:54:00,12.7,2.8,30.16,NW,315,0.7,3.8,64,0.00,CLR,FEW,0.00,WeatherDisplay:10.37,2013-02-16 10:54:00,
2013-02-16 05:00:00,12.7,2.8,30.16,NW,315,2.2,3.8,64,0.00,CLR,FEW,0.00,WeatherDisplay:10.37,2013-02-16 11:00:00,
2013-02-16 05:06:00,12.7,2.8,30.17,NW,315,2.2,3.8,64,0.00,CLR,FEW,0.00,WeatherDisplay:10.37,2013-02-16 11:06:00,
2013-02-16 05:11:00,12.6,2.7,30.16,NW,315,1.6,4.6,64,0.00,CLR,FEW,0.00,WeatherDisplay:10.37,2013-02-16 11:11:00,
2013-02-16 05:17:00,12.6,3.0,30.16,NW,315,1.6,3.5,65,0.00,CLR,FEW,0.00,WeatherDisplay:10.37,2013-02-16 11:17:00,
2013-02-16 05:22:00,12.6,3.0,30.16,North,0,1.6,5.8,65,0.00,CLR,FEW,0.00,WeatherDisplay:10.37,2013-02-16 11:22:00,
2013-02-16 05:28:00,12.6,0.6,30.16,NW,315,0.7,3.5,58,0.00,CLR,FEW,0.00,WeatherDisplay:10.37,2013-02-16 11:28:00,
2013-02-16 05:34:00,12.4,0.4,30.16,NW,315,0.7,4.6,58,0.00,CLR,FEW,0.00,WeatherDisplay:10.37,2013-02-16 11:34:00,
2013-02-16 05:39:00,12.6,0.6,30.16,West,270,0.0,2.3,58,0.00,CLR,FEW,0.00,WeatherDisplay:10.37,2013-02-16 11:39:00,
2013-02-16 05:45:00,12.4,2.5,30.15,NW,315,0.0,0.0,64,0.00,CLR,FEW,0.00,WeatherDisplay:10.37,2013-02-16 11:45:00,
2013-02-16 05:50:00,12.4,0.4,30.15,NW,315,0.0,0.0,58,0.00,CLR,FEW,0.00,WeatherDisplay:10.37,2013-02-16 11:50:00,
2013-02-16 05:56:00,12.2,0.2,30.15,NW,315,0.7,3.5,58,0.00,CLR,FEW,0.00,WeatherDisplay:10.37,2013-02-16 11:56:00,
2013-02-16 06:02:00,12.2,3.0,30.15,West,270,0.0,2.3,66,0.00,CLR,FEW,0.00,WeatherDisplay:10.37,2013-02-16 12:02:00,
2013-02-16 06:07:00,12.2,1.3,30.15,West,270,0.7,3.5,61,0.00,CLR,FEW,0.00,WeatherDisplay:10.37,2013-02-16 12:07:00,
2013-02-16 06:13:00,12.2,3.3,30.15,West,270,0.0,1.6,67,0.00,CLR,FEW,0.00,WeatherDisplay:10.37,2013-02-16 12:13:00,
2013-02-16 06:18:00,12.2,1.3,30.15,West,270,0.7,3.5,61,0.00,CLR,FEW,0.00,WeatherDisplay:10.37,2013-02-16 12:18:00,
2013-02-16 06:24:00,12.2,1.3,30.15,West,270,1.6,3.5,61,0.00,CLR,FEW,0.00,WeatherDisplay:10.37,2013-02-16 12:24:00,
2013-02-16 06:30:00,12.2,3.6,30.15,West,270,0.7,2.3,68,0.00,CLR,FEW,0.00,WeatherDisplay:10.37,2013-02-16 12:30:00,
2013-02-16 06:35:00,12.0,1.1,30.15,NW,315,1.6,3.5,61,0.00,CLR,FEW,0.00,WeatherDisplay:10.37,2013-02-16 12:35:00,
2013-02-16 06:41:00,12.0,3.5,30.15,NW,315,0.7,2.3,68,0.00,CLR,FEW,0.00,WeatherDisplay:10.37,2013-02-16 12:41:00,
2013-02-16 06:46:00,12.0,1.1,30.16,NW,315,0.0,3.5,61,0.00,CLR,FEW,0.00,WeatherDisplay:10.37,2013-02-16 12:46:00,
2013-02-16 06:52:00,11.8,1.0,30.15,West,270,1.6,3.5,61,0.00,CLR,FEW,0.00,WeatherDisplay:10.37,2013-02-16 12:52:00,
2013-02-16 06:58:00,11.8,1.0,30.15,NW,315,0.7,2.3,61,0.00,CLR,FEW,0.00,WeatherDisplay:10.37,2013-02-16 12:58:00,
2013-02-16 07:03:00,12.0,2.2,30.15,West,270,0.7,2.3,64,0.00,CLR,FEW,0.00,WeatherDisplay:10.37,2013-02-16 13:03:00,
2013-02-16 07:09:00,12.0,3.5,30.16,West,270,0.7,2.2,68,0.00,CLR,FEW,0.00,WeatherDisplay:10.37,2013-02-16 13:09:00,
2013-02-16 07:14:00,12.0,2.2,30.15,West,270,0.0,2.3,64,0.00,CLR,FEW,0.00,WeatherDisplay:10.37,2013-02-16 13:14:00,
2013-02-16 07:20:00,12.2,2.3,30.15,NW,315,0.7,3.5,64,0.00,CLR,FEW,0.00,WeatherDisplay:10.37,2013-02-16 13:20:00,
2013-02-16 07:26:00,12.4,3.8,30.15,West,270,0.0,2.3,68,0.00,CLR,FEW,0.00,WeatherDisplay:10.37,2013-02-16 13:26:00,
2013-02-16 07:31:00,12.6,2.7,30.16,North,0,0.0,0.0,64,0.00,CLR,FEW,0.00,WeatherDisplay:10.37,2013-02-16 13:31:00,
2013-02-16 07:37:00,13.3,4.0,30.15,West,270,0.7,4.6,66,0.00,CLR,FEW,0.00,WeatherDisplay:10.37,2013-02-16 13:37:00,
2013-02-16 07:42:00,13.5,3.5,30.15,West,270,0.7,1.1,64,0.00,CLR,FEW,0.00,WeatherDisplay:10.37,2013-02-16 13:42:00,
2013-02-16 07:48:00,14.4,4.4,30.16,SW,225,2.2,3.8,64,0.00,CLR,FEW,0.00,WeatherDisplay:10.37,2013-02-16 13:48:00,
2013-02-16 07:54:00,14.4,3.7,30.16,NW,315,0.7,3.8,62,0.00,CLR,FEW,0.00,WeatherDisplay:10.37,2013-02-16 13:54:00,
2013-02-16 07:59:00,14.5,4.6,30.16,North,0,2.2,5.8,64,0.00,CLR,FEW,0.00,WeatherDisplay:10.37,2013-02-16 13:59:00,
2013-02-16 08:05:00,15.4,4.0,30.16,West,270,2.2,4.5,60,0.00,CLR,FEW,0.00,WeatherDisplay:10.37,2013-02-16 14:05:00,
2013-02-16 08:10:00,15.4,5.4,30.17,NW,315,2.2,5.8,64,0.00,CLR,FEW,0.00,WeatherDisplay:10.37,2013-02-16 14:10:00,
2013-02-16 08:16:00,15.3,5.3,30.17,NW,315,3.8,8.1,64,0.00,CLR,FEW,0.00,WeatherDisplay:10.37,2013-02-16 14:16:00,
2013-02-16 08:22:00,16.0,4.2,30.17,NW,315,1.6,8.1,59,0.00,CLR,FEW,0.00,WeatherDisplay:10.37,2013-02-16 14:22:00,
2013-02-16 08:27:00,16.2,6.1,30.17,West,270,2.2,5.8,64,0.00,CLR,FEW,0.00,WeatherDisplay:10.37,2013-02-16 14:27:00,
2013-02-16 08:33:00,16.9,4.6,30.17,NW,315,2.2,6.9,58,0.00,CLR,FEW,0.00,WeatherDisplay:10.37,2013-02-16 14:33:00,
2013-02-16 08:38:00,16.7,6.6,30.17,West,270,2.2,4.6,64,0.00,CLR,FEW,0.00,WeatherDisplay:10.37,2013-02-16 14:38:00,
2013-02-16 08:44:00,17.1,7.0,30.17,West,270,3.1,4.6,64,0.00,CLR,FEW,0.00,WeatherDisplay:10.37,2013-02-16 14:44:00,
2013-02-16 08:50:00,17.2,7.1,30.17,NW,315,3.1,5.8,64,0.00,CLR,FEW,0.00,WeatherDisplay:10.37,2013-02-16 14:50:00,
2013-02-16 08:55:00,18.3,4.8,30.17,WSW,248,3.8,6.0,55,0.00,CLR,FEW,0.00,WeatherDisplay:10.37,2013-02-16 14:55:00,
2013-02-16 09:01:00,18.7,8.5,30.17,North,0,2.2,6.9,64,0.00,CLR,FEW,0.00,WeatherDisplay:10.37,2013-02-16 15:01:00,
2013-02-16 09:06:00,18.1,4.3,30.17,NW,315,2.2,8.1,54,0.00,CLR,FEW,0.00,WeatherDisplay:10.37,2013-02-16 15:06:00,
2013-02-16 09:12:00,18.0,4.1,30.17,NW,315,3.8,10.4,54,0.00,CLR,FEW,0.00,WeatherDisplay:10.37,2013-02-16 15:12:00,
2013-02-16 09:18:00,18.0,4.5,30.17,West,270,1.6,8.1,55,0.00,CLR,FEW,0.00,WeatherDisplay:10.37,2013-02-16 15:18:00,
2013-02-16 09:23:00,18.5,4.6,30.16,NW,315,3.8,10.4,54,0.00,CLR,FEW,0.00,WeatherDisplay:10.37,2013-02-16 15:23:00,
2013-02-16 09:29:00,20.1,6.1,30.16,NW,315,6.0,9.2,54,0.00,CLR,FEW,0.00,WeatherDisplay:10.37,2013-02-16 15:29:00,
2013-02-16 09:34:00,20.8,6.8,30.16,West,270,3.1,5.8,54,0.00,CLR,FEW,0.00,WeatherDisplay:10.37,2013-02-16 15:34:00,
2013-02-16 09:40:00,21.6,7.5,30.16,NW,315,3.1,6.9,54,0.00,CLR,FEW,0.00,WeatherDisplay:10.37,2013-02-16 15:40:00,
2013-02-16 09:46:00,23.0,7.5,30.16,West,270,1.6,5.8,51,0.00,CLR,FEW,0.00,WeatherDisplay:10.37,2013-02-16 15:46:00,
2013-02-16 09:51:00,22.3,8.1,30.16,NW,315,2.2,3.8,54,0.00,CLR,FEW,0.00,WeatherDisplay:10.37,2013-02-16 15:51:00,
2013-02-16 09:57:00,23.0,5.7,30.16,NW,315,3.1,9.2,47,0.00,CLR,FEW,0.00,WeatherDisplay:10.37,2013-02-16 15:57:00,
2013-02-16 10:02:00,22.1,8.4,30.16,NW,315,5.4,8.1,55,0.00,FEW,,0.00,WeatherDisplay:10.37,2013-02-16 16:02:00,
2013-02-16 10:08:00,23.5,9.7,30.16,West,270,5.4,8.1,55,0.00,FEW,,0.00,WeatherDisplay:10.37,2013-02-16 16:08:00,
2013-02-16 10:14:00,22.5,8.7,30.16,NW,315,7.6,10.4,55,0.00,FEW,,0.00,WeatherDisplay:10.37,2013-02-16 16:14:00,
2013-02-16 10:19:00,21.7,8.0,30.15,NW,315,3.8,12.7,55,0.00,FEW,,0.00,WeatherDisplay:10.37,2013-02-16 16:19:00,
2013-02-16 10:25:00,23.0,9.2,30.15,NW,315,5.4,9.2,55,0.00,FEW,,0.00,WeatherDisplay:10.37,2013-02-16 16:25:00,
2013-02-16 10:30:00,23.9,10.1,30.16,West,270,4.5,8.1,55,0.00,FEW,,0.00,WeatherDisplay:10.37,2013-02-16 16:30:00,
2013-02-16 10:36:00,23.0,9.2,30.15,NW,315,3.8,9.2,55,0.00,FEW,,0.00,WeatherDisplay:10.37,2013-02-16 16:36:00,
2013-02-16 10:42:00,22.8,5.1,30.15,West,270,3.8,6.9,46,0.00,FEW,,0.00,WeatherDisplay:10.37,2013-02-16 16:42:00,
2013-02-16 10:47:00,23.2,4.9,30.16,WNW,292,2.2,6.9,45,0.00,FEW,,0.00,WeatherDisplay:10.37,2013-02-16 16:47:00,
2013-02-16 10:53:00,23.2,9.4,30.15,WNW,292,2.2,6.9,55,0.00,FEW,,0.00,WeatherDisplay:10.37,2013-02-16 16:53:00,
2013-02-16 10:58:00,22.5,5.2,30.15,West,270,5.4,8.3,47,0.00,FEW,,0.00,WeatherDisplay:10.37,2013-02-16 16:58:00,
2013-02-16 11:04:00,22.5,6.2,30.15,West,270,5.4,8.1,49,0.00,OVC,FEW,0.00,WeatherDisplay:10.37,2013-02-16 17:04:00,
2013-02-16 11:10:00,21.7,5.0,30.15,NW,315,4.5,6.9,48,0.00,OVC,FEW,0.00,WeatherDisplay:10.37,2013-02-16 17:10:00,
2013-02-16 11:15:00,21.7,5.5,30.15,West,270,3.8,8.1,49,0.00,OVC,FEW,0.00,WeatherDisplay:10.37,2013-02-16 17:15:00,
2013-02-16 11:21:00,21.9,5.7,30.14,NW,315,3.1,6.9,49,0.00,OVC,FEW,0.00,WeatherDisplay:10.37,2013-02-16 17:21:00,
2013-02-16 11:26:00,21.6,5.3,30.14,North,0,6.9,12.7,49,0.00,OVC,FEW,0.00,WeatherDisplay:10.37,2013-02-16 17:26:00,
2013-02-16 11:32:00,21.7,5.5,30.14,North,0,5.4,13.0,49,0.00,OVC,FEW,0.00,WeatherDisplay:10.37,2013-02-16 17:32:00,
2013-02-16 11:38:00,23.7,7.3,30.14,West,270,3.8,5.4,49,0.00,OVC,FEW,0.00,WeatherDisplay:10.37,2013-02-16 17:38:00,
2013-02-16 11:43:00,23.5,7.2,30.14,NW,315,3.8,8.1,49,0.00,OVC,FEW,0.00,WeatherDisplay:10.37,2013-02-16 17:43:00,
2013-02-16 11:49:00,24.3,5.9,30.14,NW,315,3.8,6.9,45,0.00,OVC,FEW,0.00,WeatherDisplay:10.37,2013-02-16 17:49:00,
2013-02-16 11:54:00,23.9,6.1,30.13,NW,315,3.1,5.4,46,0.00,OVC,FEW,0.00,WeatherDisplay:10.37,2013-02-16 17:54:00,
2013-02-16 12:00:00,23.2,5.4,30.13,West,270,5.4,11.4,46,0.00,OVC,FEW,0.00,WeatherDisplay:10.37,2013-02-16 18:00:00,
2013-02-16 12:06:00,23.0,5.7,30.13,West,270,2.2,8.1,47,0.00,OVC,FEW,0.00,WeatherDisplay:10.37,2013-02-16 18:06:00,
2013-02-16 12:11:00,22.6,6.3,30.12,North,0,6.0,11.5,49,0.00,OVC,FEW,0.00,WeatherDisplay:10.37,2013-02-16 18:11:00,
2013-02-16 12:17:00,23.4,5.6,30.13,West,270,3.1,8.1,46,0.00,OVC,FEW,0.00,WeatherDisplay:10.37,2013-02-16 18:17:00,
2013-02-16 12:22:00,23.2,6.8,30.12,West,270,3.1,6.9,49,0.00,OVC,FEW,0.00,WeatherDisplay:10.37,2013-02-16 18:22:00,
2013-02-16 12:28:00,25.0,8.5,30.12,West,270,3.1,8.1,49,0.00,OVC,FEW,0.00,WeatherDisplay:10.37,2013-02-16 18:28:00,
2013-02-16 12:34:00,25.7,9.2,30.12,West,270,5.4,10.4,49,0.00,OVC,FEW,0.00,WeatherDisplay:10.37,2013-02-16 18:34:00,
2013-02-16 12:39:00,25.9,9.3,30.11,SW,225,2.2,5.8,49,0.00,OVC,FEW,0.00,WeatherDisplay:10.37,2013-02-16 18:39:00,
2013-02-16 12:45:00,23.9,5.6,30.11,North,0,6.9,15.2,45,0.00,OVC,FEW,0.00,WeatherDisplay:10.37,2013-02-16 18:45:00,
2013-02-16 12:50:00,23.7,7.3,30.11,West,270,5.4,9.2,49,0.00,OVC,FEW,0.00,WeatherDisplay:10.37,2013-02-16 18:50:00,
2013-02-16 12:56:00,23.0,6.7,30.11,NW,315,5.4,10.7,49,0.00,OVC,FEW,0.00,WeatherDisplay:10.37,2013-02-16 18:56:00,
2013-02-16 13:02:00,22.6,5.4,30.12,NW,315,4.5,9.8,47,0.00,BKN,FEW,0.00,WeatherDisplay:10.37,2013-02-16 19:02:00,
2013-02-16 13:07:00,23.4,7.4,30.11,NW,315,1.6,8.1,50,0.00,BKN,FEW,0.00,WeatherDisplay:10.37,2013-02-16 19:07:00,
2013-02-16 13:13:00,25.2,9.1,30.11,West,270,3.1,5.8,50,0.00,BKN,FEW,0.00,WeatherDisplay:10.37,2013-02-16 19:13:00,
2013-02-16 13:18:00,24.8,8.8,30.11,West,270,3.8,8.1,50,0.00,BKN,FEW,0.00,WeatherDisplay:10.37,2013-02-16 19:18:00,
2013-02-16 13:24:00,25.7,9.6,30.11,West,270,2.2,8.1,50,0.00,BKN,FEW,0.00,WeatherDisplay:10.37,2013-02-16 19:24:00,
2013-02-16 13:30:00,26.8,6.7,30.11,East,90,2.2,8.3,42,0.00,BKN,FEW,0.00,WeatherDisplay:10.37,2013-02-16 19:30:00,
2013-02-16 13:35:00,27.0,10.8,30.11,West,270,4.5,6.9,50,0.00,BKN,FEW,0.00,WeatherDisplay:10.37,2013-02-16 19:35:00,
2013-02-16 13:41:00,26.1,5.5,30.11,North,0,6.0,10.7,41,0.00,BKN,FEW,0.00,WeatherDisplay:10.37,2013-02-16 19:41:00,
2013-02-16 13:46:00,26.4,7.9,30.10,North,0,1.6,10.4,45,0.00,BKN,FEW,0.00,WeatherDisplay:10.37,2013-02-16 19:46:00,
2013-02-16 13:52:00,26.8,10.6,30.10,West,270,4.5,6.9,50,0.00,BKN,FEW,0.00,WeatherDisplay:10.37,2013-02-16 19:52:00,
2013-02-16 13:58:00,26.8,10.6,30.10,NW,315,3.8,5.8,50,0.00,BKN,FEW,0.00,WeatherDisplay:10.37,2013-02-16 19:58:00,
2013-02-16 14:03:00,27.0,5.8,30.10,NW,315,4.5,10.4,40,0.00,SCT,FEW,0.00,WeatherDisplay:10.37,2013-02-16 20:03:00,
2013-02-16 14:09:00,26.8,10.6,30.10,NW,315,3.1,6.9,50,0.00,SCT,FEW,0.00,WeatherDisplay:10.37,2013-02-16 20:09:00,
2013-02-16 14:14:00,26.4,6.9,30.10,NNW,338,4.5,6.9,43,0.00,SCT,FEW,0.00,WeatherDisplay:10.37,2013-02-16 20:14:00,
2013-02-16 14:20:00,25.7,9.6,30.10,WNW,292,7.6,15.0,50,0.00,SCT,FEW,0.00,WeatherDisplay:10.37,2013-02-16 20:20:00,
2013-02-16 14:26:00,26.2,10.1,30.09,West,270,2.2,9.2,50,0.00,SCT,FEW,0.00,WeatherDisplay:10.37,2013-02-16 20:26:00,
2013-02-16 14:31:00,24.6,8.6,30.10,NW,315,5.4,15.0,50,0.00,SCT,FEW,0.00,WeatherDisplay:10.37,2013-02-16 20:31:00,
2013-02-16 14:37:00,24.8,8.8,30.10,NW,315,5.4,10.4,50,0.00,SCT,FEW,0.00,WeatherDisplay:10.37,2013-02-16 20:37:00,
2013-02-16 14:42:00,25.3,9.3,30.09,NW,315,5.4,12.7,50,0.00,SCT,FEW,0.00,WeatherDisplay:10.37,2013-02-16 20:42:00,
2013-02-16 14:48:00,25.0,8.9,30.09,North,0,6.0,10.4,50,0.00,SCT,FEW,0.00,WeatherDisplay:10.37,2013-02-16 20:48:00,
2013-02-16 14:54:00,25.7,9.6,30.09,NW,315,4.5,10.4,50,0.00,SCT,FEW,0.00,WeatherDisplay:10.37,2013-02-16 20:54:00,
2013-02-16 14:59:00,26.1,9.9,30.09,West,270,2.2,12.7,50,0.00,SCT,FEW,0.00,WeatherDisplay:10.37,2013-02-16 20:59:00,
2013-02-16 15:05:00,25.7,5.7,30.09,North,0,4.5,12.7,42,0.00,FEW,,0.00,WeatherDisplay:10.37,2013-02-16 21:05:00,
2013-02-16 15:10:00,25.2,6.3,30.09,NW,315,5.4,15.0,44,0.00,FEW,,0.00,WeatherDisplay:10.37,2013-02-16 21:10:00,
2013-02-16 15:16:00,25.5,6.6,30.09,NW,315,3.8,12.7,44,0.00,FEW,,0.00,WeatherDisplay:10.37,2013-02-16 21:16:00,
2013-02-16 15:22:00,26.6,6.0,30.09,NW,315,3.8,6.9,41,0.00,FEW,,0.00,WeatherDisplay:10.37,2013-02-16 21:22:00,
2013-02-16 15:27:00,26.4,7.4,30.09,NW,315,3.8,6.9,44,0.00,FEW,,0.00,WeatherDisplay:10.37,2013-02-16 21:27:00,
2013-02-16 15:33:00,25.7,4.7,30.09,NW,315,5.4,10.7,40,0.00,FEW,,0.00,WeatherDisplay:10.37,2013-02-16 21:33:00,
2013-02-16 15:38:00,25.5,6.6,30.09,NW,315,3.1,12.7,44,0.00,FEW,,0.00,WeatherDisplay:10.37,2013-02-16 21:38:00,
2013-02-16 15:44:00,25.9,6.9,30.09,NW,315,6.9,10.4,44,0.00,FEW,,0.00,WeatherDisplay:10.37,2013-02-16 21:44:00,
2013-02-16 15:50:00,25.3,6.4,30.09,NW,315,4.5,6.9,44,0.00,FEW,,0.00,WeatherDisplay:10.37,2013-02-16 21:50:00,
2013-02-16 15:55:00,25.3,6.4,30.09,NW,315,2.2,5.8,44,0.00,FEW,,0.00,WeatherDisplay:10.37,2013-02-16 21:55:00,
2013-02-16 16:01:00,25.3,5.9,30.09,North,0,3.1,8.1,43,0.00,FEW,,0.00,WeatherDisplay:10.37,2013-02-16 22:01:00,
2013-02-16 16:06:00,25.3,6.4,30.09,NW,315,3.8,8.1,44,0.00,FEW,,0.00,WeatherDisplay:10.37,2013-02-16 22:06:00,
2013-02-16 16:12:00,25.5,6.6,30.10,West,270,2.2,6.9,44,0.00,FEW,,0.00,WeatherDisplay:10.37,2013-02-16 22:12:00,
2013-02-16 16:18:00,25.0,6.1,30.10,NW,315,3.8,9.2,44,0.00,FEW,,0.00,WeatherDisplay:10.37,2013-02-16 22:18:00,
2013-02-16 16:23:00,24.8,5.9,30.09,NW,315,4.5,8.1,44,0.00,FEW,,0.00,WeatherDisplay:10.37,2013-02-16 22:23:00,
2013-02-16 16:29:00,24.4,6.6,30.10,North,0,2.2,9.2,46,0.00,FEW,,0.00,WeatherDisplay:10.37,2013-02-16 22:29:00,
2013-02-16 16:34:00,24.4,5.6,30.10,NW,315,3.8,10.4,44,0.00,FEW,,0.00,WeatherDisplay:10.37,2013-02-16 22:34:00,
2013-02-16 16:40:00,24.8,5.9,30.09,North,0,2.2,5.8,44,0.00,FEW,,0.00,WeatherDisplay:10.37,2013-02-16 22:40:00,
2013-02-16 16:46:00,24.3,5.4,30.09,NW,315,3.1,6.9,44,0.00,FEW,,0.00,WeatherDisplay:10.37,2013-02-16 22:46:00,
2013-02-16 16:51:00,23.4,4.6,30.10,West,270,4.5,10.4,44,0.00,FEW,,0.00,WeatherDisplay:10.37,2013-02-16 22:51:00,
2013-02-16 16:57:00,23.0,6.7,30.09,NW,315,3.8,8.1,49,0.00,FEW,,0.00,WeatherDisplay:10.37,2013-02-16 22:57:00,
2013-02-16 17:02:00,23.0,5.7,30.09,North,0,3.8,8.1,47,0.00,FEW,,0.00,WeatherDisplay:10.37,2013-02-16 23:02:00,
2013-02-16 17:08:00,23.0,5.7,30.09,NW,315,3.8,10.7,47,0.00,FEW,,0.00,WeatherDisplay:10.37,2013-02-16 23:08:00,
2013-02-16 17:14:00,22.8,7.4,30.09,North,0,3.8,7.6,51,0.00,FEW,,0.00,WeatherDisplay:10.37,2013-02-16 23:14:00,
2013-02-16 17:19:00,22.6,5.4,30.10,NW,315,1.6,9.2,47,0.00,FEW,,0.00,WeatherDisplay:10.37,2013-02-16 23:19:00,
2013-02-16 17:25:00,22.5,7.5,30.10,NW,315,2.2,6.9,52,0.00,FEW,,0.00,WeatherDisplay:10.37,2013-02-16 23:25:00,
2013-02-16 17:30:00,22.3,5.1,30.10,North,0,3.8,8.1,47,0.00,FEW,,0.00,WeatherDisplay:10.37,2013-02-16 23:30:00,
2013-02-16 17:36:00,22.3,5.1,30.10,NW,315,3.1,5.8,47,0.00,FEW,,0.00,WeatherDisplay:10.37,2013-02-16 23:36:00,
2013-02-16 17:42:00,22.1,7.6,30.10,West,270,0.7,3.5,53,0.00,FEW,,0.00,WeatherDisplay:10.37,2013-02-16 23:42:00,
2013-02-16 17:47:00,22.1,4.9,30.10,West,270,0.7,4.6,47,0.00,FEW,,0.00,WeatherDisplay:10.37,2013-02-16 23:47:00,
2013-02-16 17:53:00,21.9,7.8,30.10,NW,315,2.2,5.8,54,0.00,FEW,,0.00,WeatherDisplay:10.37,2013-02-16 23:53:00,
2013-02-16 17:58:00,21.7,4.6,30.11,WNW,292,1.6,4.6,47,0.00,FEW,,0.00,WeatherDisplay:10.37,2013-02-16 23:58:00,
2013-02-16 18:04:00,21.7,8.0,30.11,North,0,1.6,3.5,55,0.00,CLR,FEW,0.00,WeatherDisplay:10.37,2013-02-17 00:04:00,
2013-02-16 18:10:00,21.6,7.9,30.11,North,0,1.6,3.5,55,0.00,CLR,FEW,0.00,WeatherDisplay:10.37,2013-02-17 00:10:00,
2013-02-16 18:15:00,21.4,7.7,30.11,North,0,2.2,5.8,55,0.00,CLR,FEW,0.00,WeatherDisplay:10.37,2013-02-17 00:15:00,
2013-02-16 18:21:00,21.0,7.8,30.12,NW,315,1.6,3.8,56,0.00,CLR,FEW,0.00,WeatherDisplay:10.37,2013-02-17 00:21:00,
2013-02-16 18:26:00,21.0,7.4,30.12,North,0,1.6,4.6,55,0.00,CLR,FEW,0.00,WeatherDisplay:10.37,2013-02-17 00:26:00,
2013-02-16 18:32:00,21.0,7.8,30.12,North,0,1.6,5.8,56,0.00,CLR,FEW,0.00,WeatherDisplay:10.37,2013-02-17 00:32:00,
2013-02-16 18:38:00,20.8,7.2,30.12,North,0,0.7,3.5,55,0.00,CLR,FEW,0.00,WeatherDisplay:10.37,2013-02-17 00:38:00,
2013-02-16 18:43:00,20.7,7.0,30.12,North,0,1.6,4.6,55,0.00,CLR,FEW,0.00,WeatherDisplay:10.37,2013-02-17 00:43:00,
2013-02-16 18:49:00,20.5,6.9,30.12,North,0,0.7,2.3,55,0.00,CLR,FEW,0.00,WeatherDisplay:10.37,2013-02-17 00:49:00,
2013-02-16 18:54:00,20.3,7.5,30.12,North,0,1.6,3.5,57,0.00,CLR,FEW,0.00,WeatherDisplay:10.37,2013-02-17 00:54:00,
2013-02-16 19:00:00,20.1,6.5,30.12,North,0,0.0,1.1,55,0.00,CLR,FEW,0.00,WeatherDisplay:10.37,2013-02-17 01:00:00,
2013-02-16 19:06:00,19.8,7.4,30.12,North,0,0.0,1.1,58,0.00,CLR,FEW,0.00,WeatherDisplay:10.37,2013-02-17 01:06:00,
2013-02-16 19:11:00,19.8,6.2,30.13,NW,315,0.0,0.0,55,0.00,CLR,FEW,0.00,WeatherDisplay:10.37,2013-02-17 01:11:00,
2013-02-16 19:17:00,19.2,5.7,30.12,North,0,0.0,0.0,55,0.00,CLR,FEW,0.00,WeatherDisplay:10.37,2013-02-17 01:17:00,
2013-02-16 19:22:00,18.9,5.3,30.12,ENE,68,0.0,0.0,55,0.00,CLR,FEW,0.00,WeatherDisplay:10.37,2013-02-17 01:22:00,
2013-02-16 19:28:00,18.7,5.2,30.12,NE,45,0.0,0.0,55,0.00,CLR,FEW,0.00,WeatherDisplay:10.37,2013-02-17 01:28:00,
2013-02-16 19:34:00,18.9,7.3,30.12,NE,45,0.0,0.0,60,0.00,CLR,FEW,0.00,WeatherDisplay:10.37,2013-02-17 01:34:00,
2013-02-16 19:39:00,18.9,7.6,30.12,North,0,0.0,0.0,61,0.00,CLR,FEW,0.00,WeatherDisplay:10.37,2013-02-17 01:39:00,
2013-02-16 19:45:00,18.7,7.4,30.12,North,0,0.0,0.0,61,0.00,CLR,FEW,0.00,WeatherDisplay:10.37,2013-02-17 01:45:00,
2013-02-16 19:50:00,18.5,7.6,30.12,North,0,0.0,0.0,62,0.00,CLR,FEW,0.00,WeatherDisplay:10.37,2013-02-17 01:50:00,
2013-02-16 19:56:00,18.5,8.0,30.12,North,0,0.0,0.0,63,0.00,CLR,FEW,0.00,WeatherDisplay:10.37,2013-02-17 01:56:00,
2013-02-16 20:02:00,18.5,8.0,30.12,North,0,0.0,0.0,63,0.00,CLR,FEW,0.00,WeatherDisplay:10.37,2013-02-17 02:02:00,
2013-02-16 20:07:00,18.3,9.5,30.12,NE,45,0.0,0.0,68,0.00,CLR,FEW,0.00,WeatherDisplay:10.37,2013-02-17 02:07:00,
2013-02-16 20:13:00,18.3,9.5,30.12,North,0,0.0,0.0,68,0.00,CLR,FEW,0.00,WeatherDisplay:10.37,2013-02-17 02:13:00,
2013-02-16 20:18:00,18.5,9.7,30.12,North,0,0.0,2.3,68,0.00,CLR,FEW,0.00,WeatherDisplay:10.37,2013-02-17 02:18:00,
2013-02-16 20:24:00,18.3,9.5,30.12,NE,45,0.0,0.0,68,0.00,CLR,FEW,0.00,WeatherDisplay:10.37,2013-02-17 02:24:00,
2013-02-16 20:30:00,18.1,8.0,30.12,North,0,0.0,0.0,64,0.00,CLR,FEW,0.00,WeatherDisplay:10.37,2013-02-17 02:30:00,
2013-02-16 20:35:00,18.1,9.3,30.12,North,0,0.0,0.0,68,0.00,CLR,FEW,0.00,WeatherDisplay:10.37,2013-02-17 02:35:00,
2013-02-16 20:41:00,18.1,8.3,30.12,NE,45,0.7,2.3,65,0.00,CLR,FEW,0.00,WeatherDisplay:10.37,2013-02-17 02:41:00,
2013-02-16 20:46:00,18.3,8.5,30.12,NE,45,0.0,3.5,65,0.00,CLR,FEW,0.00,WeatherDisplay:10.37,2013-02-17 02:46:00,
2013-02-16 20:52:00,18.1,9.3,30.12,North,0,0.0,2.3,68,0.00,CLR,FEW,0.00,WeatherDisplay:10.37,2013-02-17 02:52:00,
2013-02-16 20:58:00,18.0,8.5,30.11,NE,45,0.7,1.6,66,0.00,CLR,FEW,0.00,WeatherDisplay:10.37,2013-02-17 02:58:00,
2013-02-16 21:03:00,18.0,9.2,30.11,North,0,0.0,1.1,68,0.00,CLR,FEW,0.00,WeatherDisplay:10.37,2013-02-17 03:03:00,
2013-02-16 21:09:00,18.0,8.5,30.12,East,90,0.0,1.1,66,0.00,CLR,FEW,0.00,WeatherDisplay:10.37,2013-02-17 03:09:00,
2013-02-16 21:14:00,17.8,8.3,30.12,North,0,0.0,0.0,66,0.00,CLR,FEW,0.00,WeatherDisplay:10.37,2013-02-17 03:14:00,
2013-02-16 21:20:00,17.8,9.0,30.11,NE,45,0.0,0.0,68,0.00,CLR,FEW,0.00,WeatherDisplay:10.37,2013-02-17 03:20:00,
2013-02-16 21:26:00,17.4,8.3,30.11,NE,45,0.0,1.1,67,0.00,CLR,FEW,0.00,WeatherDisplay:10.37,2013-02-17 03:26:00,
2013-02-16 21:31:00,17.4,8.3,30.11,North,0,0.0,2.3,67,0.00,CLR,FEW,0.00,WeatherDisplay:10.37,2013-02-17 03:31:00,
2013-02-16 21:37:00,17.1,8.0,30.11,North,0,0.0,0.0,67,0.00,CLR,FEW,0.00,WeatherDisplay:10.37,2013-02-17 03:37:00,
2013-02-16 21:42:00,17.1,8.3,30.11,South,180,0.0,0.0,68,0.00,CLR,FEW,0.00,WeatherDisplay:10.37,2013-02-17 03:42:00,
2013-02-16 21:48:00,16.7,8.0,30.11,SW,225,0.0,0.0,68,0.00,CLR,FEW,0.00,WeatherDisplay:10.37,2013-02-17 03:48:00,
2013-02-16 21:54:00,16.5,7.8,30.11,SW,225,0.0,0.0,68,0.00,CLR,FEW,0.00,WeatherDisplay:10.37,2013-02-17 03:54:00,
2013-02-16 21:59:00,16.7,8.0,30.11,NE,45,0.0,0.0,68,0.00,CLR,FEW,0.00,WeatherDisplay:10.37,2013-02-17 03:59:00,
2013-02-16 22:05:00,16.7,7.0,30.11,West,270,0.0,0.0,65,0.00,CLR,FEW,0.00,WeatherDisplay:10.37,2013-02-17 04:05:00,
2013-02-16 22:10:00,16.5,6.8,30.11,East,90,0.0,0.0,65,0.00,CLR,FEW,0.00,WeatherDisplay:10.37,2013-02-17 04:10:00,
2013-02-16 22:16:00,16.2,6.5,30.11,East,90,0.0,0.0,65,0.00,CLR,FEW,0.00,WeatherDisplay:10.37,2013-02-17 04:16:00,
2013-02-16 22:22:00,16.0,6.3,30.11,East,90,0.0,0.0,65,0.00,CLR,FEW,0.00,WeatherDisplay:10.37,2013-02-17 04:22:00,
2013-02-16 22:27:00,15.8,6.1,30.11,North,0,0.0,0.0,65,0.00,CLR,FEW,0.00,WeatherDisplay:10.37,2013-02-17 04:27:00,
2013-02-16 22:33:00,15.6,7.6,30.11,South,180,0.0,0.0,70,0.00,CLR,FEW,0.00,WeatherDisplay:10.37,2013-02-17 04:33:00,
2013-02-16 22:38:00,15.8,6.1,30.11,South,180,0.0,0.0,65,0.00,CLR,FEW,0.00,WeatherDisplay:10.37,2013-02-17 04:38:00,
2013-02-16 22:44:00,15.4,5.8,30.11,South,180,0.0,0.0,65,0.00,CLR,FEW,0.00,WeatherDisplay:10.37,2013-02-17 04:44:00,
2013-02-16 22:50:00,15.4,5.8,30.11,South,180,0.0,0.0,65,0.00,CLR,FEW,0.00,WeatherDisplay:10.37,2013-02-17 04:50:00,
2013-02-16 22:55:00,15.6,5.9,30.10,NE,45,0.0,0.0,65,0.00,CLR,FEW,0.00,WeatherDisplay:10.37,2013-02-17 04:55:00,
2013-02-16 23:00:00,15.6,7.9,30.10,NE,45,0.0,0.0,71,0.00,CLR,FEW,0.00,WeatherDisplay:10.37,2013-02-17 05:00:00,
2013-02-16 23:02:00,15.6,7.9,30.10,NE,45,0.0,0.0,71,0.00,CLR,FEW,0.00,WeatherDisplay:10.37,2013-02-17 05:02:00,
2013-02-16 23:03:00,15.6,3.4,30.10,NE,45,0.0,0.0,58,0.00,CLR,FEW,0.00,WeatherDisplay:10.37,2013-02-17 05:03:00,
2013-02-16 23:09:00,15.8,8.1,30.10,East,90,0.0,0.0,71,0.00,CLR,FEW,0.00,WeatherDisplay:10.37,2013-02-17 05:09:00,
2013-02-16 23:14:00,16.0,3.8,30.10,NE,45,0.0,0.0,58,0.00,CLR,FEW,0.00,WeatherDisplay:10.37,2013-02-17 05:14:00,
2013-02-16 23:20:00,16.0,3.8,30.10,NE,45,0.0,0.0,58,0.00,CLR,FEW,0.00,WeatherDisplay:10.37,2013-02-17 05:20:00,
2013-02-16 23:26:00,15.8,7.7,30.10,NE,45,0.0,0.0,70,0.00,CLR,FEW,0.00,WeatherDisplay:10.37,2013-02-17 05:26:00,
2013-02-16 23:30:00,15.4,7.7,30.10,SW,225,0.0,0.0,71,0.00,CLR,FEW,0.00,WeatherDisplay:10.37,2013-02-17 05:30:00,
2013-02-16 23:35:00,15.3,3.1,30.11,South,180,0.0,0.0,58,0.00,CLR,FEW,0.00,WeatherDisplay:10.37,2013-02-17 05:35:00,
2013-02-16 23:41:00,15.3,7.5,30.11,East,90,0.0,0.0,71,0.00,CLR,FEW,0.00,WeatherDisplay:10.37,2013-02-17 05:41:00,
2013-02-16 23:46:00,15.8,8.4,30.11,East,90,0.0,2.3,72,0.00,CLR,FEW,0.00,WeatherDisplay:10.37,2013-02-17 05:46:00,
2013-02-16 23:52:00,16.0,3.8,30.11,East,90,1.6,3.5,58,0.00,CLR,FEW,0.00,WeatherDisplay:10.37,2013-02-17 05:52:00,
2013-02-16 23:58:00,16.2,8.4,30.11,SSE,158,0.0,3.5,71,0.00,CLR,FEW,0.00,WeatherDisplay:10.37,2013-02-17 05:58:00,